Georgia Highway — 7JCV — position and weather

sailwx.info

Track history (hours):
 
Tides and Currents Weather Stations Pressure Air Temp Water Temp Dewpoint Dewpoint Depression Visibility Wind Speed Wind Dir Waves Ship Positions

Georgia Highway

Last reported at 2016-Jul-15 03:23 UTC. Time now 2016-Jul-27 19:14 UTC.
Position N 36°32' W 132°13'.
Warning: this ship's position is 12 days out of date.

Length 200 m; draft 7.7 m.

Type: Cargo ship. MMSI: 432629000.

Date/timePositionNaut miles runAvg speedWind from/ knotsBaromVisibWave heightAir tempDewpointWater temp
2016-Jul-15 03:23N 36°32' W 132°13'14214.5
2016-Jul-14 17:33N 35°17' W 129°43'1714.5
2016-Jul-14 16:21N 35°06' W 129°27'1314.6
2016-Jul-14 15:30N 34°59' W 129°14'1414.7
2016-Jul-14 14:33N 34°50' W 129°01'5014.8
2016-Jul-14 11:08N 34°21' W 128°11'914.9
2016-Jul-14 10:33N 34°15' W 128°03'1514.8
2016-Jul-14 09:31N 34°06' W 127°48'1414.7
2016-Jul-14 08:33N 33°58' W 127°34'5814.5
2016-Jul-14 04:33N 33°23' W 126°39'1514.3
2016-Jul-14 03:31N 33°14' W 126°24'1414.3
2016-Jul-14 02:33N 33°06' W 126°11'1514.4
2016-Jul-14 01:33N 32°57' W 125°58'26814.1
2016-Jul-13 06:33N 30°29' W 121°35'1414.6
2016-Jul-13 05:33N 30°32' W 121°18'3514.4
2016-Jul-13 03:06N 30°39' W 120°38'2214.1
2016-Jul-13 01:32N 30°43' W 120°13'5613.9
2016-Jul-12 21:28N 30°55' W 119°09'1314.5
2016-Jul-12 20:33N 30°58' W 118°54'1514.7
2016-Jul-12 19:31N 31°02' W 118°36'1515.1
2016-Jul-12 18:32N 31°12' W 118°24'1515.3
2016-Jul-12 17:33N 31°25' W 118°14'1515.3
2016-Jul-12 16:33N 31°38' W 118°04'1515.0
2016-Jul-12 15:33N 31°50' W 117°55'1514.6
2016-Jul-12 14:32N 32°02' W 117°45'1414.3
2016-Jul-12 13:33N 32°14' W 117°35'1514.6
2016-Jul-12 12:32N 32°25' W 117°24'1414.6
2016-Jul-12 11:33N 32°37' W 117°14'6 6.3
2016-Jul-12 10:34N 32°42' W 117°09'3 3.1
2016-Jul-12 09:31N 32°39' W 117°07'0 0.0
2016-Jul-12 08:31N 32°39' W 117°07'0 0.0
2016-Jul-12 07:31N 32°39' W 117°07'0 0.0
2016-Jul-12 06:31N 32°39' W 117°07'0 0.0
2016-Jul-12 05:31N 32°39' W 117°07'0 0.0
2016-Jul-12 04:31N 32°39' W 117°07'0 0.0
2016-Jul-12 03:31N 32°39' W 117°07'0 0.0
2016-Jul-12 02:31N 32°39' W 117°07'0 0.0
2016-Jul-12 01:28N 32°39' W 117°07'0 0.0
2016-Jul-12 00:31N 32°39' W 117°07'0 0.0
2016-Jul-11 23:31N 32°39' W 117°07'0 0.0
2016-Jul-11 22:28N 32°39' W 117°07'0 0.0
2016-Jul-11 21:31N 32°39' W 117°07'0 0.0
2016-Jul-11 20:31N 32°39' W 117°07'0 0.0
2016-Jul-11 19:31N 32°39' W 117°07'0 0.0
2016-Jul-11 18:31N 32°39' W 117°07'0 0.0
2016-Jul-11 17:31N 32°39' W 117°07'0 0.0
2016-Jul-11 16:31N 32°39' W 117°07'0 0.3
2016-Jul-11 15:33N 32°39' W 117°07'6 6.3
2016-Jul-11 14:33N 32°42' W 117°14'7 6.9
2016-Jul-11 13:33N 32°36' W 117°17'2 2.3
2016-Jul-11 12:33N 32°36' W 117°20'2 1.6
2016-Jul-11 11:33N 32°35' W 117°22'1 0.9
2016-Jul-11 10:33N 32°34' W 117°22'1 0.7
2016-Jul-11 09:33N 32°34' W 117°23'1 0.6
2016-Jul-11 08:33N 32°34' W 117°24'1 0.6
2016-Jul-11 07:33N 32°34' W 117°24'0 0.4
2016-Jul-11 06:33N 32°34' W 117°25'1 0.4
2016-Jul-11 04:32N 32°34' W 117°26'1 0.5
2016-Jul-11 03:33N 32°35' W 117°26'1 0.7
2016-Jul-11 02:33N 32°35' W 117°26'1 1.2
2016-Jul-11 01:33N 32°37' W 117°27'2 1.8
2016-Jul-11 00:33N 32°38' W 117°27'2 1.7
2016-Jul-10 23:33N 32°40' W 117°28'1 1.1
2016-Jul-10 22:33N 32°41' W 117°28'1 0.8
2016-Jul-10 21:33N 32°41' W 117°29'1 0.7
2016-Jul-10 20:33N 32°41' W 117°30'1 0.8
2016-Jul-10 19:33N 32°41' W 117°31'1 1.0
2016-Jul-10 18:33N 32°41' W 117°32'1 0.9
2016-Jul-10 17:33N 32°41' W 117°33'1 0.9
2016-Jul-10 16:33N 32°40' W 117°34'1 1.0
2016-Jul-10 15:33N 32°40' W 117°35'1 1.0
2016-Jul-10 14:33N 32°39' W 117°35'1 0.9
2016-Jul-10 13:33N 32°38' W 117°36'1 0.9
2016-Jul-10 12:33N 32°37' W 117°36'1 1.0
2016-Jul-10 11:33N 32°36' W 117°36'1 0.9
2016-Jul-10 10:33N 32°35' W 117°36'1 0.7
2016-Jul-10 09:33N 32°35' W 117°37'1 0.6
2016-Jul-10 08:33N 32°34' W 117°36'0 0.4
2016-Jul-10 07:33N 32°34' W 117°36'0 0.3
2016-Jul-10 06:33N 32°33' W 117°36'0 0.2
2016-Jul-10 05:33N 32°33' W 117°36'0 0.1
2016-Jul-10 04:33N 32°33' W 117°36'0 0.2
2016-Jul-10 03:33N 32°33' W 117°36'6 5.9
2016-Jul-10 02:33N 32°30' W 117°30'7 7.0
2016-Jul-10 01:33N 32°32' W 117°22'1 0.6
2016-Jul-10 00:33N 32°32' W 117°22'1 1.2
2016-Jul-09 23:33N 32°33' W 117°23'1 1.0
2016-Jul-09 22:33N 32°34' W 117°24'1 1.0
2016-Jul-09 21:33N 32°34' W 117°26'1 1.3
2016-Jul-09 20:33N 32°34' W 117°27'1 1.1
2016-Jul-09 19:33N 32°34' W 117°28'1 0.8
2016-Jul-09 18:33N 32°33' W 117°29'1 0.7
2016-Jul-09 17:33N 32°33' W 117°30'1 0.6
2016-Jul-09 16:33N 32°33' W 117°30'1 0.6
2016-Jul-09 15:33N 32°32' W 117°31'4 3.7
2016-Jul-09 14:33N 32°36' W 117°33'9 8.9
2016-Jul-09 13:33N 32°42' W 117°40'9 8.9
2016-Jul-09 12:33N 32°50' W 117°45'8 8.1
2016-Jul-09 11:33N 32°56' W 117°51'8 7.8
2016-Jul-09 10:33N 33°03' W 117°56'8 8.0
2016-Jul-09 09:33N 33°10' W 118°00'8 8.0
2016-Jul-09 08:33N 33°17' W 118°05'9 8.4
2016-Jul-09 07:32N 33°25' W 118°09'9 8.7
2016-Jul-09 06:33N 33°33' W 118°12'16 8.1
2016-Jul-09 04:33N 33°40' W 118°30'9 8.6
2016-Jul-09 03:33N 33°44' W 118°38'9 8.8
2016-Jul-09 02:33N 33°48' W 118°48'1010.0
2016-Jul-09 01:33N 33°53' W 118°58'1111.0
2016-Jul-09 00:33N 33°59' W 119°10'9 8.9
2016-Jul-08 23:33N 34°07' W 119°14'2 2.4
2016-Jul-08 22:33N 34°09' W 119°12'0 0.0
2016-Jul-08 21:33N 34°09' W 119°12'0 0.0
2016-Jul-08 20:33N 34°09' W 119°12'0 0.0
2016-Jul-08 19:18N 34°09' W 119°12'0 0.0
2016-Jul-08 18:33N 34°09' W 119°12'0 0.0
2016-Jul-08 17:21N 34°09' W 119°12'0 0.1
2016-Jul-08 16:30N 34°09' W 119°12'0 0.0
2016-Jul-08 15:21N 34°09' W 119°12'0 0.1
2016-Jul-08 14:33N 34°09' W 119°12'0 0.0
2016-Jul-08 13:15N 34°09' W 119°12'0 0.0
2016-Jul-08 12:24N 34°09' W 119°12'0 0.0
2016-Jul-08 11:18N 34°09' W 119°12'0 0.0
2016-Jul-08 10:18N 34°09' W 119°12'0 0.1
2016-Jul-08 09:27N 34°09' W 119°12'0 0.0
2016-Jul-08 08:33N 34°09' W 119°12'0 0.0
2016-Jul-08 07:15N 34°09' W 119°12'0 0.0
2016-Jul-08 06:33N 34°09' W 119°12'0 0.0
2016-Jul-08 04:33N 34°09' W 119°12'0 0.0
2016-Jul-08 03:27N 34°09' W 119°12'0 0.1
2016-Jul-08 02:33N 34°09' W 119°12'0 0.2
2016-Jul-08 01:33N 34°09' W 119°13'4 3.4
2016-Jul-08 00:29N 34°05' W 119°13'6 6.1
2016-Jul-07 23:33N 34°01' W 119°08'2 2.4
2016-Jul-07 22:33N 33°59' W 119°09'7 7.0
2016-Jul-07 21:33N 34°02' W 119°16'5 4.7
2016-Jul-07 20:33N 34°04' W 119°22'5 4.9
2016-Jul-07 19:33N 34°05' W 119°27'7 7.1
2016-Jul-07 18:33N 34°06' W 119°36'8 8.0
2016-Jul-07 17:33N 34°09' W 119°45'10 8.2
2016-Jul-07 16:21N 34°11' W 119°57'6 7.9
2016-Jul-07 15:33N 34°13' W 120°04'8 7.7
2016-Jul-07 14:33N 34°15' W 120°13'7 7.4
2016-Jul-07 13:33N 34°17' W 120°21'8 7.7
2016-Jul-07 12:27N 34°19' W 120°31'7 7.2
2016-Jul-07 11:32N 34°21' W 120°39'11 8.7
2016-Jul-07 10:19N 34°24' W 120°51'18 9.5
2016-Jul-07 08:26N 34°23' W 121°13'20 9.6
2016-Jul-07 06:22N 34°21' W 121°37'9 9.8
2016-Jul-07 05:29N 34°21' W 121°47'9 9.7
2016-Jul-07 04:33N 34°21' W 121°58'1010.0
2016-Jul-07 03:33N 34°21' W 122°10'9 9.4
2016-Jul-07 02:33N 34°20' W 122°22'9 8.3
2016-Jul-07 01:29N 34°20' W 122°32'8 8.7
2016-Jul-07 00:34N 34°19' W 122°42'1010.4
2016-Jul-06 23:33N 34°18' W 122°55'9 8.9
2016-Jul-06 22:33N 34°17' W 123°05'2 1.6
2016-Jul-06 21:34N 34°18' W 123°07'2 1.4
2016-Jul-06 20:25N 34°20' W 123°07'2 1.5
2016-Jul-06 19:08N 34°22' W 123°07'1 1.5
2016-Jul-06 18:28N 34°23' W 123°06'1 1.5
2016-Jul-06 17:33N 34°24' W 123°06'2 1.6
2016-Jul-06 16:20N 34°26' W 123°07'4 4.6
2016-Jul-06 15:33N 34°26' W 123°11'7 7.5
2016-Jul-06 14:33N 34°26' W 123°20'7 7.2
2016-Jul-06 13:33N 34°26' W 123°29'8 7.7
2016-Jul-06 12:33N 34°26' W 123°38'8 7.9
2016-Jul-06 11:33N 34°27' W 123°48'9 7.8
2016-Jul-06 10:27N 34°27' W 123°58'7 7.7
2016-Jul-06 09:33N 34°27' W 124°07'7 7.6
2016-Jul-06 08:34N 34°27' W 124°16'8 7.7
2016-Jul-06 07:32N 34°27' W 124°25'9 8.9
2016-Jul-06 06:28N 34°27' W 124°37'20 9.2
2016-Jul-06 04:19N 34°28' W 125°01'9 9.3
2016-Jul-06 03:18N 34°28' W 125°12'2010.4
2016-Jul-06 01:24N 34°38' W 125°33'23514.6
2016-Jul-05 09:19N 36°54' W 129°30'1414.2
2016-Jul-05 08:20N 37°02' W 129°44'  
Track history (hours):
 
Tides and Currents Weather Stations Pressure Air Temp Water Temp Dewpoint Dewpoint Depression Visibility Wind Speed Wind Dir Waves Ship Positions

Georgia Highway

Last reported at 2016-Jul-15 03:23 UTC. Time now 2016-Jul-27 19:14 UTC.
Position N 36°32' W 132°13'.
Warning: this ship's position is 12 days out of date.

Length 200 m; draft 7.7 m.

Type: Cargo ship. MMSI: 432629000.

Date/timePositionNaut miles runAvg speedWind from/ knotsBaromVisibWave heightAir tempDewpointWater temp
2016-Jul-15 03:23N 36°32' W 132°13'14214.5
2016-Jul-14 17:33N 35°17' W 129°43'1714.5
2016-Jul-14 16:21N 35°06' W 129°27'1314.6
2016-Jul-14 15:30N 34°59' W 129°14'1414.7
2016-Jul-14 14:33N 34°50' W 129°01'5014.8
2016-Jul-14 11:08N 34°21' W 128°11'914.9
2016-Jul-14 10:33N 34°15' W 128°03'1514.8
2016-Jul-14 09:31N 34°06' W 127°48'1414.7
2016-Jul-14 08:33N 33°58' W 127°34'5814.5
2016-Jul-14 04:33N 33°23' W 126°39'1514.3
2016-Jul-14 03:31N 33°14' W 126°24'1414.3
2016-Jul-14 02:33N 33°06' W 126°11'1514.4
2016-Jul-14 01:33N 32°57' W 125°58'26814.1
2016-Jul-13 06:33N 30°29' W 121°35'1414.6
2016-Jul-13 05:33N 30°32' W 121°18'3514.4
2016-Jul-13 03:06N 30°39' W 120°38'2214.1
2016-Jul-13 01:32N 30°43' W 120°13'5613.9
2016-Jul-12 21:28N 30°55' W 119°09'1314.5
2016-Jul-12 20:33N 30°58' W 118°54'1514.7
2016-Jul-12 19:31N 31°02' W 118°36'1515.1
2016-Jul-12 18:32N 31°12' W 118°24'1515.3
2016-Jul-12 17:33N 31°25' W 118°14'1515.3
2016-Jul-12 16:33N 31°38' W 118°04'1515.0
2016-Jul-12 15:33N 31°50' W 117°55'1514.6
2016-Jul-12 14:32N 32°02' W 117°45'1414.3
2016-Jul-12 13:33N 32°14' W 117°35'1514.6
2016-Jul-12 12:32N 32°25' W 117°24'1414.6
2016-Jul-12 11:33N 32°37' W 117°14'6 6.3
2016-Jul-12 10:34N 32°42' W 117°09'3 3.1
2016-Jul-12 09:31N 32°39' W 117°07'0 0.0
2016-Jul-12 08:31N 32°39' W 117°07'0 0.0
2016-Jul-12 07:31N 32°39' W 117°07'0 0.0
2016-Jul-12 06:31N 32°39' W 117°07'0 0.0
2016-Jul-12 05:31N 32°39' W 117°07'0 0.0
2016-Jul-12 04:31N 32°39' W 117°07'0 0.0
2016-Jul-12 03:31N 32°39' W 117°07'0 0.0
2016-Jul-12 02:31N 32°39' W 117°07'0 0.0
2016-Jul-12 01:28N 32°39' W 117°07'0 0.0
2016-Jul-12 00:31N 32°39' W 117°07'0 0.0
2016-Jul-11 23:31N 32°39' W 117°07'0 0.0
2016-Jul-11 22:28N 32°39' W 117°07'0 0.0
2016-Jul-11 21:31N 32°39' W 117°07'0 0.0
2016-Jul-11 20:31N 32°39' W 117°07'0 0.0
2016-Jul-11 19:31N 32°39' W 117°07'0 0.0
2016-Jul-11 18:31N 32°39' W 117°07'0 0.0
2016-Jul-11 17:31N 32°39' W 117°07'0 0.0
2016-Jul-11 16:31N 32°39' W 117°07'0 0.3
2016-Jul-11 15:33N 32°39' W 117°07'6 6.3
2016-Jul-11 14:33N 32°42' W 117°14'7 6.9
2016-Jul-11 13:33N 32°36' W 117°17'2 2.3
2016-Jul-11 12:33N 32°36' W 117°20'2 1.6
2016-Jul-11 11:33N 32°35' W 117°22'1 0.9
2016-Jul-11 10:33N 32°34' W 117°22'1 0.7
2016-Jul-11 09:33N 32°34' W 117°23'1 0.6
2016-Jul-11 08:33N 32°34' W 117°24'1 0.6
2016-Jul-11 07:33N 32°34' W 117°24'0 0.4
2016-Jul-11 06:33N 32°34' W 117°25'1 0.4
2016-Jul-11 04:32N 32°34' W 117°26'1 0.5
2016-Jul-11 03:33N 32°35' W 117°26'1 0.7
2016-Jul-11 02:33N 32°35' W 117°26'1 1.2
2016-Jul-11 01:33N 32°37' W 117°27'2 1.8
2016-Jul-11 00:33N 32°38' W 117°27'2 1.7
2016-Jul-10 23:33N 32°40' W 117°28'1 1.1
2016-Jul-10 22:33N 32°41' W 117°28'1 0.8
2016-Jul-10 21:33N 32°41' W 117°29'1 0.7
2016-Jul-10 20:33N 32°41' W 117°30'1 0.8
2016-Jul-10 19:33N 32°41' W 117°31'1 1.0
2016-Jul-10 18:33N 32°41' W 117°32'1 0.9
2016-Jul-10 17:33N 32°41' W 117°33'1 0.9
2016-Jul-10 16:33N 32°40' W 117°34'1 1.0
2016-Jul-10 15:33N 32°40' W 117°35'1 1.0
2016-Jul-10 14:33N 32°39' W 117°35'1 0.9
2016-Jul-10 13:33N 32°38' W 117°36'1 0.9
2016-Jul-10 12:33N 32°37' W 117°36'1 1.0
2016-Jul-10 11:33N 32°36' W 117°36'1 0.9
2016-Jul-10 10:33N 32°35' W 117°36'1 0.7
2016-Jul-10 09:33N 32°35' W 117°37'1 0.6
2016-Jul-10 08:33N 32°34' W 117°36'0 0.4
2016-Jul-10 07:33N 32°34' W 117°36'0 0.3
2016-Jul-10 06:33N 32°33' W 117°36'0 0.2
2016-Jul-10 05:33N 32°33' W 117°36'0 0.1
2016-Jul-10 04:33N 32°33' W 117°36'0 0.2
2016-Jul-10 03:33N 32°33' W 117°36'6 5.9
2016-Jul-10 02:33N 32°30' W 117°30'7 7.0
2016-Jul-10 01:33N 32°32' W 117°22'1 0.6
2016-Jul-10 00:33N 32°32' W 117°22'1 1.2
2016-Jul-09 23:33N 32°33' W 117°23'1 1.0
2016-Jul-09 22:33N 32°34' W 117°24'1 1.0
2016-Jul-09 21:33N 32°34' W 117°26'1 1.3
2016-Jul-09 20:33N 32°34' W 117°27'1 1.1
2016-Jul-09 19:33N 32°34' W 117°28'1 0.8
2016-Jul-09 18:33N 32°33' W 117°29'1 0.7
2016-Jul-09 17:33N 32°33' W 117°30'1 0.6
2016-Jul-09 16:33N 32°33' W 117°30'1 0.6
2016-Jul-09 15:33N 32°32' W 117°31'4 3.7
2016-Jul-09 14:33N 32°36' W 117°33'9 8.9
2016-Jul-09 13:33N 32°42' W 117°40'9 8.9
2016-Jul-09 12:33N 32°50' W 117°45'8 8.1
2016-Jul-09 11:33N 32°56' W 117°51'8 7.8
2016-Jul-09 10:33N 33°03' W 117°56'8 8.0
2016-Jul-09 09:33N 33°10' W 118°00'8 8.0
2016-Jul-09 08:33N 33°17' W 118°05'9 8.4
2016-Jul-09 07:32N 33°25' W 118°09'9 8.7
2016-Jul-09 06:33N 33°33' W 118°12'16 8.1
2016-Jul-09 04:33N 33°40' W 118°30'9 8.6
2016-Jul-09 03:33N 33°44' W 118°38'9 8.8
2016-Jul-09 02:33N 33°48' W 118°48'1010.0
2016-Jul-09 01:33N 33°53' W 118°58'1111.0
2016-Jul-09 00:33N 33°59' W 119°10'9 8.9
2016-Jul-08 23:33N 34°07' W 119°14'2 2.4
2016-Jul-08 22:33N 34°09' W 119°12'0 0.0
2016-Jul-08 21:33N 34°09' W 119°12'0 0.0
2016-Jul-08 20:33N 34°09' W 119°12'0 0.0
2016-Jul-08 19:18N 34°09' W 119°12'0 0.0
2016-Jul-08 18:33N 34°09' W 119°12'0 0.0
2016-Jul-08 17:21N 34°09' W 119°12'0 0.1
2016-Jul-08 16:30N 34°09' W 119°12'0 0.0
2016-Jul-08 15:21N 34°09' W 119°12'0 0.1
2016-Jul-08 14:33N 34°09' W 119°12'0 0.0
2016-Jul-08 13:15N 34°09' W 119°12'0 0.0
2016-Jul-08 12:24N 34°09' W 119°12'0 0.0
2016-Jul-08 11:18N 34°09' W 119°12'0 0.0
2016-Jul-08 10:18N 34°09' W 119°12'0 0.1
2016-Jul-08 09:27N 34°09' W 119°12'0 0.0
2016-Jul-08 08:33N 34°09' W 119°12'0 0.0
2016-Jul-08 07:15N 34°09' W 119°12'0 0.0
2016-Jul-08 06:33N 34°09' W 119°12'0 0.0
2016-Jul-08 04:33N 34°09' W 119°12'0 0.0
2016-Jul-08 03:27N 34°09' W 119°12'0 0.1
2016-Jul-08 02:33N 34°09' W 119°12'0 0.2
2016-Jul-08 01:33N 34°09' W 119°13'4 3.4
2016-Jul-08 00:29N 34°05' W 119°13'6 6.1
2016-Jul-07 23:33N 34°01' W 119°08'2 2.4
2016-Jul-07 22:33N 33°59' W 119°09'7 7.0
2016-Jul-07 21:33N 34°02' W 119°16'5 4.7
2016-Jul-07 20:33N 34°04' W 119°22'5 4.9
2016-Jul-07 19:33N 34°05' W 119°27'7 7.1
2016-Jul-07 18:33N 34°06' W 119°36'8 8.0
2016-Jul-07 17:33N 34°09' W 119°45'10 8.2
2016-Jul-07 16:21N 34°11' W 119°57'6 7.9
2016-Jul-07 15:33N 34°13' W 120°04'8 7.7
2016-Jul-07 14:33N 34°15' W 120°13'7 7.4
2016-Jul-07 13:33N 34°17' W 120°21'8 7.7
2016-Jul-07 12:27N 34°19' W 120°31'7 7.2
2016-Jul-07 11:32N 34°21' W 120°39'11 8.7
2016-Jul-07 10:19N 34°24' W 120°51'18 9.5
2016-Jul-07 08:26N 34°23' W 121°13'20 9.6
2016-Jul-07 06:22N 34°21' W 121°37'9 9.8
2016-Jul-07 05:29N 34°21' W 121°47'9 9.7
2016-Jul-07 04:33N 34°21' W 121°58'1010.0
2016-Jul-07 03:33N 34°21' W 122°10'9 9.4
2016-Jul-07 02:33N 34°20' W 122°22'9 8.3
2016-Jul-07 01:29N 34°20' W 122°32'8 8.7
2016-Jul-07 00:34N 34°19' W 122°42'1010.4
2016-Jul-06 23:33N 34°18' W 122°55'9 8.9
2016-Jul-06 22:33N 34°17' W 123°05'2 1.6
2016-Jul-06 21:34N 34°18' W 123°07'2 1.4
2016-Jul-06 20:25N 34°20' W 123°07'2 1.5
2016-Jul-06 19:08N 34°22' W 123°07'1 1.5
2016-Jul-06 18:28N 34°23' W 123°06'1 1.5
2016-Jul-06 17:33N 34°24' W 123°06'2 1.6
2016-Jul-06 16:20N 34°26' W 123°07'4 4.6
2016-Jul-06 15:33N 34°26' W 123°11'7 7.5
2016-Jul-06 14:33N 34°26' W 123°20'7 7.2
2016-Jul-06 13:33N 34°26' W 123°29'8 7.7
2016-Jul-06 12:33N 34°26' W 123°38'8 7.9
2016-Jul-06 11:33N 34°27' W 123°48'9 7.8
2016-Jul-06 10:27N 34°27' W 123°58'7 7.7
2016-Jul-06 09:33N 34°27' W 124°07'7 7.6
2016-Jul-06 08:34N 34°27' W 124°16'8 7.7
2016-Jul-06 07:32N 34°27' W 124°25'9 8.9
2016-Jul-06 06:28N 34°27' W 124°37'20 9.2
2016-Jul-06 04:19N 34°28' W 125°01'9 9.3
2016-Jul-06 03:18N 34°28' W 125°12'2010.4
2016-Jul-06 01:24N 34°38' W 125°33'23514.6
2016-Jul-05 09:19N 36°54' W 129°30'1414.2
2016-Jul-05 08:20N 37°02' W 129°44'  

Dump ship's entire track history